Time;durP1;ratioP1;P1;durP2;ratioP2;P2;SDS_P1;SDS_P2;PMS_P1;PMS_P2;Temp;Humidity;BMP_temperature;BMP_pressure;BME280_temperature;BME280_humidity;BME280_pressure;Samples;Min_cycle;Max_cycle;Signal;HPM_P1;HPM_P2
2022/01/02 00:00:22;;;;;;;18.23;9.35;;;;;;;2.92;92.56;97187.84;2064693;28;20206;-60
2022/01/02 00:01:24;;;;;;;17.08;8.63;;;;;;;2.92;92.96;97171.44;2064689;28;20199;-60
2022/01/02 00:02:28;;;;;;;16.10;9.30;;;;;;;3.34;92.84;97225.44;2063514;28;20277;-60
2022/01/02 00:03:38;;;;;;;14.40;8.30;;;;;;;3.24;92.51;97213.69;2064537;28;20197;-60
2022/01/02 00:04:47;;;;;;;16.40;9.20;;;;;;;3.23;93.61;97207.63;2064138;28;20203;-60
2022/01/02 00:05:52;;;;;;;20.67;10.18;;;;;;;3.36;93.26;97203.78;2064400;28;20228;-60
2022/01/02 00:06:54;;;;;;;18.55;9.55;;;;;;;3.51;92.02;97212.00;2064222;28;20253;-60
2022/01/02 00:08:07;;;;;;;18.58;8.80;;;;;;;3.49;91.77;97208.56;2064624;28;20209;-61
2022/01/02 00:09:12;;;;;;;22.65;9.90;;;;;;;3.31;92.63;97199.63;2063814;28;20548;-60
2022/01/02 00:10:16;;;;;;;17.48;9.15;;;;;;;3.16;93.30;97200.97;2062533;28;20202;-60
2022/01/02 00:11:23;;;;;;;20.65;8.70;;;;;;;3.22;93.49;97197.34;2064449;28;20677;-62
2022/01/02 00:12:28;;;;;;;18.48;8.75;;;;;;;3.17;93.82;97202.63;2063545;28;20226;-60
2022/01/02 00:13:34;;;;;;;19.20;9.30;;;;;;;3.24;93.56;97193.81;2062197;28;20244;-60
2022/01/02 00:14:38;;;;;;;17.80;9.68;;;;;;;3.27;93.52;97193.69;2064284;28;20199;-60
2022/01/02 00:15:39;;;;;;;16.77;8.60;;;;;;;3.24;93.42;97196.41;2064598;28;20577;-60
2022/01/02 00:16:41;;;;;;;19.42;9.48;;;;;;;3.22;93.16;97198.19;2064176;28;20911;-60
2022/01/02 00:17:43;;;;;;;21.13;9.95;;;;;;;3.03;93.21;97158.22;2064473;28;20194;-60
2022/01/02 00:18:52;;;;;;;16.77;9.35;;;;;;;3.30;93.50;97195.38;2063870;28;20190;-60
2022/01/02 00:19:55;;;;;;;16.10;8.35;;;;;;;3.32;93.21;97193.56;2063634;28;20209;-60
2022/01/02 00:20:59;;;;;;;19.10;9.90;;;;;;;3.29;93.74;97193.66;2063414;28;20198;-60
2022/01/02 00:22:04;;;;;;;14.23;8.13;;;;;;;3.20;95.23;97179.25;2061881;28;20226;-61
2022/01/02 00:23:07;;;;;;;17.40;8.98;;;;;;;3.27;94.74;97188.50;2064385;28;20237;-60
2022/01/02 00:24:12;;;;;;;13.75;8.00;;;;;;;3.32;94.75;97194.41;2064518;28;20634;-60
2022/01/02 00:25:25;;;;;;;16.63;8.48;;;;;;;3.19;94.07;97185.31;2063843;28;20214;-60
2022/01/02 00:27:58;;;;;;;16.92;9.10;;;;;;;3.09;94.41;97183.91;2071734;28;20578;-60
2022/01/02 00:29:13;;;;;;;21.83;10.32;;;;;;;3.21;94.47;97183.53;2071284;28;20679;-60
2022/01/02 00:30:16;;;;;;;14.38;7.40;;;;;;;3.10;94.14;97181.28;2072626;28;20285;-60
2022/01/02 00:31:18;;;;;;;10.25;6.85;;;;;;;3.11;94.17;97182.13;2072563;28;20197;-60
2022/01/02 00:32:20;;;;;;;15.77;7.72;;;;;;;3.23;94.48;97186.91;2065209;28;20222;-60
2022/01/02 00:33:24;;;;;;;14.98;8.32;;;;;;;3.18;94.59;97183.63;2064329;28;20212;-59
2022/01/02 00:34:26;;;;;;;17.73;9.00;;;;;;;3.12;94.79;97176.91;2064271;28;20211;-60
2022/01/02 00:35:28;;;;;;;12.93;8.10;;;;;;;3.18;95.22;97173.28;2063936;28;20665;-60
2022/01/02 00:36:29;;;;;;;16.10;8.07;;;;;;;3.26;95.50;97176.47;2063547;28;20634;-60
2022/01/02 00:37:31;;;;;;;18.42;9.25;;;;;;;3.25;95.53;97168.75;2064220;28;20203;-60
2022/01/02 00:38:35;;;;;;;14.45;8.63;;;;;;;3.19;95.53;97174.97;2064390;28;20195;-60
2022/01/02 00:39:38;;;;;;;13.35;7.80;;;;;;;3.21;95.10;97165.41;2064445;28;20201;-60
2022/01/02 00:40:44;;;;;;;11.55;7.50;;;;;;;3.31;94.73;97171.16;2064294;28;20194;-60
2022/01/02 00:41:57;;;;;;;18.50;8.48;;;;;;;3.34;93.86;97168.47;2064000;28;20202;-60
2022/01/02 00:43:03;;;;;;;10.93;7.13;;;;;;;3.04;94.13;97136.59;2064400;28;20211;-60
2022/01/02 00:44:17;;;;;;;14.85;7.30;;;;;;;3.32;94.04;97171.13;2062788;28;20217;-60
2022/01/02 00:45:28;;;;;;;12.45;6.80;;;;;;;3.48;93.23;97170.63;2064329;28;20202;-60
2022/01/02 00:46:32;;;;;;;16.63;8.00;;;;;;;3.50;93.13;97159.31;2063964;28;20241;-60
2022/01/02 00:47:53;;;;;;;13.63;7.68;;;;;;;3.12;93.40;97101.00;2064062;28;20190;-60
2022/01/02 00:48:59;;;;;;;13.55;7.43;;;;;;;3.47;92.90;97158.56;2063244;28;20213;-60
2022/01/02 00:50:10;;;;;;;12.57;7.03;;;;;;;3.44;93.00;97159.53;2062744;28;20297;-60
2022/01/02 00:51:42;;;;;;;10.25;6.40;;;;;;;3.30;92.89;97162.53;2063016;28;20210;-60
2022/01/02 00:52:46;;;;;;;9.98;5.78;;;;;;;3.26;92.96;97155.78;2063320;28;20233;-60
2022/01/02 00:53:48;;;;;;;14.30;6.90;;;;;;;3.15;93.35;97163.84;2063761;28;20202;-60
2022/01/02 00:54:54;;;;;;;11.20;6.18;;;;;;;3.14;92.60;97162.16;2064181;28;20195;-60
2022/01/02 00:55:57;;;;;;;11.88;6.88;;;;;;;3.10;93.18;97159.72;2064279;28;20229;-59
2022/01/02 00:57:08;;;;;;;11.55;7.25;;;;;;;3.12;93.30;97152.78;2063547;28;20233;-60
2022/01/02 00:58:14;;;;;;;12.35;7.57;;;;;;;3.07;93.23;97157.22;2063319;28;20202;-59
2022/01/02 00:59:27;;;;;;;15.65;7.53;;;;;;;3.08;93.33;97158.94;2062807;28;20209;-60
2022/01/02 01:00:30;;;;;;;14.35;7.78;;;;;;;3.37;92.53;97158.00;2064038;28;20194;-60
2022/01/02 01:01:34;;;;;;;13.40;7.15;;;;;;;3.23;92.25;97163.63;2062588;28;20209;-60
2022/01/02 01:02:45;;;;;;;10.93;6.70;;;;;;;3.14;92.26;97156.16;2064068;28;20242;-60
2022/01/02 01:03:51;;;;;;;15.30;7.65;;;;;;;3.13;92.57;97157.03;2063981;28;20214;-60
2022/01/02 01:04:55;;;;;;;15.68;7.03;;;;;;;3.04;92.77;97153.00;2064036;28;20213;-60
2022/01/02 01:06:02;;;;;;;12.13;7.20;;;;;;;2.95;93.15;97151.50;2063239;28;20213;-60
2022/01/02 01:07:05;;;;;;;11.70;6.85;;;;;;;3.01;93.27;97144.47;2063167;28;20252;-59
2022/01/02 01:08:08;;;;;;;13.43;7.55;;;;;;;3.13;92.69;97149.28;2064242;28;20190;-60
2022/01/02 01:09:11;;;;;;;13.00;6.72;;;;;;;3.10;92.88;97144.19;2064240;28;20222;-60
2022/01/02 01:10:13;;;;;;;15.48;7.28;;;;;;;3.10;93.06;97136.44;2064188;28;20195;-60
2022/01/02 01:11:14;;;;;;;11.63;7.25;;;;;;;3.12;92.81;97138.06;2063954;28;20209;-60
2022/01/02 01:12:16;;;;;;;10.68;6.40;;;;;;;3.13;92.84;97138.91;2061873;28;20238;-60
2022/01/02 01:13:18;;;;;;;12.52;7.20;;;;;;;3.09;93.16;97137.31;2061393;28;20256;-60
2022/01/02 01:14:19;;;;;;;9.68;7.28;;;;;;;3.16;92.95;97133.66;2064244;28;20202;-59
2022/01/02 01:15:24;;;;;;;10.00;7.43;;;;;;;3.10;93.05;97128.69;2064240;28;20202;-60
2022/01/02 01:16:26;;;;;;;14.40;6.90;;;;;;;3.16;93.50;97136.25;2063704;28;20197;-60
2022/01/02 01:17:28;;;;;;;11.80;6.57;;;;;;;3.07;93.36;97127.00;2062601;28;20729;-60
2022/01/02 01:18:29;;;;;;;11.60;6.07;;;;;;;3.21;93.11;97142.13;2064275;28;20202;-60
2022/01/02 01:19:31;;;;;;;9.60;6.18;;;;;;;3.17;93.10;97143.09;2064416;28;20203;-61
2022/01/02 01:20:41;;;;;;;12.10;6.70;;;;;;;3.25;92.98;97137.69;2064199;28;20202;-60
2022/01/02 01:21:42;;;;;;;14.73;7.38;;;;;;;3.10;93.65;97141.63;2063792;28;20533;-60
2022/01/02 01:22:48;;;;;;;11.48;6.72;;;;;;;3.09;93.99;97134.72;2064232;28;20703;-60
2022/01/02 01:23:50;;;;;;;16.80;7.03;;;;;;;3.03;94.21;97143.53;2064070;28;20199;-60
2022/01/02 01:24:51;;;;;;;14.32;8.05;;;;;;;3.04;94.01;97145.22;2062880;28;20205;-60
2022/01/02 01:25:53;;;;;;;15.23;7.18;;;;;;;3.04;93.46;97149.53;2064224;28;20254;-60
2022/01/02 01:26:56;;;;;;;12.55;6.97;;;;;;;2.80;93.89;97145.94;2063051;28;20226;-59
2022/01/02 01:27:59;;;;;;;13.45;6.85;;;;;;;2.90;94.02;97143.06;2063459;28;20198;-60
2022/01/02 01:29:01;;;;;;;9.98;6.65;;;;;;;2.53;93.59;97136.34;2063211;28;20675;-60
2022/01/02 01:30:04;;;;;;;13.38;7.65;;;;;;;2.58;94.07;97144.81;2064274;28;20202;-59
2022/01/02 01:31:05;;;;;;;27.05;8.20;;;;;;;2.29;93.28;97134.44;2064187;28;20198;-60
2022/01/02 01:32:08;;;;;;;16.98;7.15;;;;;;;2.10;92.99;97093.59;2063766;28;20552;-60
2022/01/02 01:33:10;;;;;;;14.55;7.35;;;;;;;2.32;93.34;97118.84;2064176;28;20194;-60
2022/01/02 01:34:11;;;;;;;13.25;7.18;;;;;;;2.45;92.96;97127.09;2064200;28;20203;-60
2022/01/02 01:35:14;;;;;;;17.92;8.55;;;;;;;2.50;92.94;97127.84;2063270;28;20203;-60
2022/01/02 01:36:16;;;;;;;12.77;6.93;;;;;;;2.53;92.77;97126.00;2064228;28;20202;-60
2022/01/02 01:37:17;;;;;;;11.10;7.20;;;;;;;2.30;92.70;97084.44;2063671;28;20740;-60
2022/01/02 01:38:19;;;;;;;15.90;7.10;;;;;;;2.57;92.88;97109.50;2063741;28;20210;-60
2022/01/02 01:39:20;;;;;;;11.40;6.90;;;;;;;2.71;92.78;97116.88;2064051;28;20194;-59
2022/01/02 01:40:22;;;;;;;15.93;7.18;;;;;;;2.76;92.42;97124.47;2064207;28;20198;-60
2022/01/02 01:41:35;;;;;;;12.73;6.90;;;;;;;2.63;92.72;97108.50;2063621;28;20658;-60
2022/01/02 01:42:41;;;;;;;15.45;6.72;;;;;;;2.64;93.34;97114.50;2062671;28;20697;-60
2022/01/02 01:43:54;;;;;;;11.70;5.95;;;;;;;2.56;94.01;97107.81;2063350;28;20217;-60
2022/01/02 01:46:09;;;;;;;10.07;6.05;;;;;;;2.48;93.42;97117.53;2062503;28;20665;-60
2022/01/02 01:47:11;;;;;;;12.90;6.10;;;;;;;2.49;93.86;97108.03;2063673;28;20800;-60
2022/01/02 01:48:12;;;;;;;9.75;5.80;;;;;;;2.59;94.13;97117.25;2064253;28;20210;-60
2022/01/02 01:49:24;;;;;;;9.63;5.65;;;;;;;2.58;93.62;97118.94;2061573;28;20202;-60
2022/01/02 01:50:30;;;;;;;8.57;5.57;;;;;;;2.60;92.97;97123.25;2064273;28;20238;-59
2022/01/02 01:51:31;;;;;;;9.43;5.43;;;;;;;2.60;92.12;97118.91;2063456;28;20201;-60
2022/01/02 01:52:32;;;;;;;9.23;5.45;;;;;;;2.52;92.33;97116.53;2061570;28;20202;-60
2022/01/02 01:53:34;;;;;;;11.38;5.65;;;;;;;2.59;92.85;97109.47;2064149;28;20199;-60
2022/01/02 01:54:35;;;;;;;11.75;6.47;;;;;;;2.54;92.14;97122.53;2064023;28;20191;-60
2022/01/02 01:55:38;;;;;;;10.57;6.18;;;;;;;2.38;91.00;97134.19;2064141;28;20206;-60
2022/01/02 01:56:40;;;;;;;12.02;7.10;;;;;;;2.32;91.36;97129.19;2063729;28;20197;-60
2022/01/02 01:57:41;;;;;;;11.30;5.70;;;;;;;2.25;90.99;97122.50;2064079;28;20202;-59
2022/01/02 01:58:44;;;;;;;10.05;5.68;;;;;;;2.20;91.37;97129.53;2064038;28;20198;-60
2022/01/02 01:59:47;;;;;;;12.07;6.35;;;;;;;1.89;91.58;97107.94;2064024;28;20205;-60
2022/01/02 02:00:48;;;;;;;11.75;6.25;;;;;;;2.00;92.07;97130.03;2064093;28;20561;-60
2022/01/02 02:01:55;;;;;;;10.57;5.57;;;;;;;2.05;92.15;97136.78;2063440;28;20740;-59
2022/01/02 02:02:57;;;;;;;11.50;6.60;;;;;;;2.01;92.03;97119.69;2065197;28;20360;-60
2022/01/02 02:03:59;;;;;;;9.25;5.25;;;;;;;2.10;92.17;97134.09;2065659;28;20229;-59
2022/01/02 02:05:01;;;;;;;12.32;6.80;;;;;;;2.07;92.50;97119.50;2065531;28;20205;-60
2022/01/02 02:06:02;;;;;;;11.40;6.10;;;;;;;2.14;92.72;97130.53;2065439;28;20198;-60
2022/01/02 02:07:04;;;;;;;12.05;5.85;;;;;;;2.12;92.91;97127.16;2065121;28;20902;-60
2022/01/02 02:08:06;;;;;;;11.25;6.40;;;;;;;2.18;92.43;97119.25;2065492;28;20198;-59
2022/01/02 02:09:09;;;;;;;10.02;5.80;;;;;;;2.25;91.90;97114.72;2065564;28;20206;-59
2022/01/02 02:10:25;;;;;;;9.68;4.90;;;;;;;2.30;91.38;97116.31;2063113;28;20199;-60
2022/01/02 02:11:28;;;;;;;10.50;6.10;;;;;;;2.12;91.46;97111.66;2065346;28;20209;-59
2022/01/02 02:12:30;;;;;;;13.95;6.82;;;;;;;2.24;91.72;97113.91;2064027;28;20230;-60
2022/01/02 02:13:32;;;;;;;11.68;6.65;;;;;;;2.23;94.06;97113.94;2065444;28;20193;-59
2022/01/02 02:14:36;;;;;;;8.75;5.75;;;;;;;2.20;93.98;97103.69;2065339;28;20191;-60
2022/01/02 02:15:37;;;;;;;10.77;6.20;;;;;;;2.16;93.19;97097.75;2064501;28;20195;-60
2022/01/02 02:16:39;;;;;;;11.40;5.88;;;;;;;2.10;92.88;97098.78;2065073;28;20198;-60
2022/01/02 02:17:43;;;;;;;14.07;5.80;;;;;;;2.13;92.66;97098.66;2065499;28;20205;-60
2022/01/02 02:18:44;;;;;;;17.08;6.53;;;;;;;2.13;92.61;97092.66;2065501;28;20559;-59
2022/01/02 02:19:49;;;;;;;10.65;6.18;;;;;;;2.07;93.02;97087.66;2065567;28;20310;-60
2022/01/02 02:20:50;;;;;;;11.20;6.53;;;;;;;2.21;93.72;97093.28;2065384;28;20202;-60
2022/01/02 02:21:51;;;;;;;13.02;6.38;;;;;;;2.17;93.98;97086.50;2064565;28;20219;-59
2022/01/02 02:22:55;;;;;;;11.52;6.10;;;;;;;2.15;93.99;97083.97;2065425;28;20193;-60
2022/01/02 02:23:59;;;;;;;13.32;6.88;;;;;;;2.30;93.97;97090.47;2064249;28;20210;-59
2022/01/02 02:25:00;;;;;;;11.48;6.75;;;;;;;2.44;93.42;97079.72;2063473;28;20199;-59
2022/01/02 02:26:02;;;;;;;9.55;5.45;;;;;;;2.38;93.22;97085.06;2065435;28;20555;-60
2022/01/02 02:27:03;;;;;;;9.82;5.40;;;;;;;2.22;93.12;97060.56;2065020;28;20225;-59
2022/01/02 02:28:12;;;;;;;12.13;6.45;;;;;;;2.28;93.21;97071.56;2065438;28;20202;-60
2022/01/02 02:29:14;;;;;;;11.77;5.65;;;;;;;2.29;93.27;97062.06;2065250;28;20198;-60
2022/01/02 02:30:16;;;;;;;9.70;6.28;;;;;;;2.26;93.30;97065.59;2065486;28;20206;-60
2022/01/02 02:31:17;;;;;;;10.35;6.38;;;;;;;2.34;93.07;97063.63;2065253;28;20256;-59
2022/01/02 02:32:19;;;;;;;9.00;5.55;;;;;;;2.42;92.71;97066.00;2064995;28;20229;-60
2022/01/02 02:33:21;;;;;;;9.15;5.65;;;;;;;2.38;92.50;97066.97;2064819;28;20205;-59
2022/01/02 02:34:23;;;;;;;10.70;5.28;;;;;;;2.38;92.51;97067.81;2063841;28;20201;-60
2022/01/02 02:35:26;;;;;;;12.65;5.80;;;;;;;2.24;92.52;97061.38;2065427;28;20206;-60
2022/01/02 02:36:27;;;;;;;13.65;7.93;;;;;;;2.29;92.73;97062.91;2065399;28;20198;-61
2022/01/02 02:37:30;;;;;;;10.68;5.80;;;;;;;2.32;92.67;97068.00;2064871;28;20785;-60
2022/01/02 02:38:32;;;;;;;8.48;5.80;;;;;;;2.06;92.22;97021.34;2065246;28;20202;-61
2022/01/02 02:39:36;;;;;;;11.90;5.55;;;;;;;2.27;92.67;97076.75;2065309;28;20194;-59
2022/01/02 02:40:39;;;;;;;12.15;6.03;;;;;;;2.25;92.72;97070.78;2063824;28;20190;-60
2022/01/02 02:41:42;;;;;;;10.50;6.45;;;;;;;2.07;93.14;97046.31;2064865;28;20551;-61
2022/01/02 02:43:03;;;;;;;14.63;6.45;;;;;;;2.21;93.49;97067.44;2065302;28;20313;-61
2022/01/02 02:44:18;;;;;;;10.15;6.55;;;;;;;2.28;93.24;97061.22;2065218;28;20210;-61
2022/01/02 02:49:43;;;;;;;8.45;4.65;;;;;;;1.81;92.35;97039.28;2065367;28;20197;-61
2022/01/02 02:50:48;;;;;;;10.73;6.05;;;;;;;1.74;92.84;97029.09;2065154;28;20195;-60
2022/01/02 02:51:57;;;;;;;9.05;5.68;;;;;;;1.77;93.71;97036.78;2064604;28;20226;-61
2022/01/02 02:52:59;;;;;;;12.95;6.05;;;;;;;1.82;94.53;97040.97;2064969;28;20218;-60
2022/01/02 02:54:00;;;;;;;15.43;7.28;;;;;;;1.82;94.93;97035.81;2064994;28;20554;-61
2022/01/02 02:55:02;;;;;;;9.68;6.25;;;;;;;1.85;94.92;97035.75;2064996;28;20199;-61
2022/01/02 02:56:14;;;;;;;15.00;6.90;;;;;;;1.86;95.11;97040.00;2063818;28;20657;-61
2022/01/02 02:57:18;;;;;;;10.18;6.28;;;;;;;1.89;95.00;97043.34;2064408;28;20605;-61
2022/01/02 02:59:35;;;;;;;12.60;5.80;;;;;;;1.95;93.68;97042.34;2064802;28;20280;-61
2022/01/02 03:00:37;;;;;;;7.68;4.80;;;;;;;1.93;94.23;97044.97;2065035;28;20733;-61
2022/01/02 03:01:40;;;;;;;8.75;5.13;;;;;;;1.93;94.84;97036.38;2064447;28;20240;-61
2022/01/02 03:02:44;;;;;;;9.02;5.93;;;;;;;2.03;94.73;97036.97;2064252;28;20238;-61
2022/01/02 03:03:47;;;;;;;10.65;5.95;;;;;;;2.02;95.87;97018.03;2064303;28;20202;-58
2022/01/02 03:04:48;;;;;;;10.18;5.97;;;;;;;2.24;96.83;97036.34;2064582;28;20190;-58
2022/01/02 03:05:50;;;;;;;11.98;6.43;;;;;;;2.28;96.65;97037.97;2064872;28;20210;-58
2022/01/02 03:06:51;;;;;;;11.25;5.95;;;;;;;2.33;95.73;97040.41;2063820;28;20222;-58
2022/01/02 03:07:55;;;;;;;12.20;6.07;;;;;;;2.27;94.78;97030.25;2063849;28;20194;-58
2022/01/02 03:09:07;;;;;;;8.55;5.57;;;;;;;2.31;94.43;97044.78;2064966;28;20209;-58
2022/01/02 03:10:10;;;;;;;9.95;5.60;;;;;;;2.31;94.12;97047.34;2064663;28;20202;-58
2022/01/02 03:11:15;;;;;;;11.13;6.60;;;;;;;1.97;94.55;97046.56;2065127;28;20650;-58
2022/01/02 03:12:18;;;;;;;11.05;6.13;;;;;;;1.90;94.98;97029.56;2063069;28;20238;-58
2022/01/02 03:13:20;;;;;;;15.00;6.95;;;;;;;2.25;94.28;97039.78;2064665;28;20225;-58
2022/01/02 03:14:21;;;;;;;9.73;5.93;;;;;;;2.25;94.32;97034.63;2065096;28;20285;-60
2022/01/02 03:15:23;;;;;;;11.63;5.97;;;;;;;2.08;94.25;97017.84;2065013;28;20194;-60
2022/01/02 03:16:24;;;;;;;11.35;5.80;;;;;;;1.66;94.83;96984.56;2064994;28;20201;-60
2022/01/02 03:17:26;;;;;;;8.75;4.95;;;;;;;1.93;95.32;97024.28;2064639;28;20218;-61
2022/01/02 03:18:27;;;;;;;8.50;5.60;;;;;;;2.14;94.94;97043.53;2064826;28;20218;-60
2022/01/02 03:19:31;;;;;;;20.25;8.30;;;;;;;2.24;95.20;97038.09;2064531;28;20209;-60
2022/01/02 03:20:33;;;;;;;11.63;6.32;;;;;;;2.17;95.90;97033.09;2064561;28;20964;-60
2022/01/02 03:21:34;;;;;;;13.18;7.07;;;;;;;2.21;95.59;97028.69;2064597;28;20822;-60
2022/01/02 03:22:36;;;;;;;15.35;6.20;;;;;;;2.20;96.38;97026.16;2064328;28;20201;-60
2022/01/02 03:23:37;;;;;;;15.93;7.10;;;;;;;2.13;96.65;97028.91;2064910;28;20206;-60
2022/01/02 03:24:39;;;;;;;13.95;7.30;;;;;;;2.15;96.34;97024.53;2065003;28;20198;-60
2022/01/02 03:25:40;;;;;;;9.95;6.50;;;;;;;2.16;95.59;97023.66;2064624;28;20217;-60
2022/01/02 03:26:42;;;;;;;11.57;6.20;;;;;;;2.22;95.40;97039.88;2064520;28;20202;-60
2022/01/02 03:27:44;;;;;;;12.52;6.32;;;;;;;2.21;95.29;97027.84;2065114;28;20195;-61
2022/01/02 03:28:46;;;;;;;12.07;6.20;;;;;;;2.14;95.25;97016.84;2064920;28;20201;-60
2022/01/02 03:29:49;;;;;;;11.32;6.72;;;;;;;2.16;95.58;97015.91;2064924;28;20609;-61
2022/01/02 03:30:52;;;;;;;15.40;7.65;;;;;;;2.25;96.19;97027.69;2063448;28;20196;-60
2022/01/02 03:31:54;;;;;;;12.43;7.20;;;;;;;2.24;96.12;97020.84;2064284;28;20684;-60
2022/01/02 03:32:56;;;;;;;12.20;7.18;;;;;;;2.32;95.74;97018.88;2065004;28;20202;-60
2022/01/02 03:33:57;;;;;;;7.55;5.40;;;;;;;2.39;95.51;97022.13;2064219;28;20669;-60
2022/01/02 03:34:59;;;;;;;11.30;5.97;;;;;;;2.20;95.07;97014.06;2064943;28;20202;-60
2022/01/02 03:36:00;;;;;;;12.88;6.35;;;;;;;2.21;94.55;96992.50;2064887;28;20213;-61
2022/01/02 03:37:02;;;;;;;8.95;5.85;;;;;;;2.26;94.48;97013.06;2064469;28;20222;-60
2022/01/02 03:38:05;;;;;;;7.65;5.25;;;;;;;2.21;94.72;97012.34;2064710;28;20198;-60
2022/01/02 03:39:06;;;;;;;10.82;5.40;;;;;;;2.10;94.90;97000.56;2064299;28;20202;-61
2022/01/02 03:40:09;;;;;;;10.80;5.80;;;;;;;2.19;94.75;97007.19;2064756;28;20206;-60
2022/01/02 03:41:11;;;;;;;12.00;5.97;;;;;;;2.30;94.37;97006.91;2064797;28;20199;-60
2022/01/02 03:42:12;;;;;;;10.93;5.50;;;;;;;2.25;94.52;97013.94;2064433;28;20226;-61
2022/01/02 03:43:14;;;;;;;6.32;4.75;;;;;;;1.98;94.43;96970.78;2064949;28;20210;-60
2022/01/02 03:44:15;;;;;;;12.00;5.97;;;;;;;1.90;94.51;96964.97;2064712;28;20202;-61
2022/01/02 03:45:17;;;;;;;7.65;4.70;;;;;;;2.24;93.86;96996.75;2064687;28;20214;-60
2022/01/02 03:46:18;;;;;;;8.23;5.07;;;;;;;2.16;94.08;96989.22;2064772;28;20218;-60
2022/01/02 03:47:20;;;;;;;8.38;5.20;;;;;;;2.20;93.97;97000.31;2062593;28;20321;-60
2022/01/02 03:48:22;;;;;;;8.55;5.03;;;;;;;2.15;93.86;96993.53;2064804;28;20198;-60
2022/01/02 03:49:23;;;;;;;7.82;4.50;;;;;;;2.16;93.75;96997.81;2064038;28;20202;-60
2022/01/02 03:50:25;;;;;;;9.45;5.30;;;;;;;2.13;93.72;96990.13;2064100;28;20210;-61
2022/01/02 03:51:26;;;;;;;8.52;4.65;;;;;;;2.11;93.77;96997.09;2064892;28;20677;-60
2022/01/02 03:52:28;;;;;;;8.63;4.68;;;;;;;2.07;93.73;96989.47;2064340;28;20225;-60
2022/01/02 03:53:30;;;;;;;6.93;3.97;;;;;;;2.13;93.53;96984.13;2064739;28;20205;-60
2022/01/02 03:54:31;;;;;;;13.23;4.47;;;;;;;2.05;93.90;96971.44;2064689;28;20213;-60
2022/01/02 03:55:36;;;;;;;6.85;4.60;;;;;;;2.26;94.18;96979.47;2064133;28;20194;-60
2022/01/02 03:56:37;;;;;;;11.75;5.32;;;;;;;2.31;93.99;96977.56;2063838;28;20525;-61
2022/01/02 03:57:39;;;;;;;7.50;4.55;;;;;;;2.27;94.22;96976.81;2063975;28;20194;-60
2022/01/02 03:58:41;;;;;;;7.53;5.00;;;;;;;2.18;94.16;96977.09;2064760;28;20539;-60
2022/01/02 03:59:42;;;;;;;9.20;4.20;;;;;;;2.15;94.30;96978.00;2064683;28;20214;-60
2022/01/02 04:00:44;;;;;;;6.90;3.92;;;;;;;2.10;94.17;96979.06;2064791;28;20205;-60
2022/01/02 04:01:46;;;;;;;8.30;4.80;;;;;;;1.99;94.44;96981.94;2064319;28;20549;-61
2022/01/02 04:02:48;;;;;;;8.13;4.07;;;;;;;1.94;94.39;96969.16;2064575;28;20813;-60
2022/01/02 04:03:49;;;;;;;7.57;4.53;;;;;;;2.06;94.27;96973.13;2064859;28;20199;-61
2022/01/02 04:04:51;;;;;;;9.85;3.88;;;;;;;1.86;94.42;96942.72;2064747;28;20206;-61
2022/01/02 04:05:52;;;;;;;4.88;3.90;;;;;;;2.09;94.27;96978.19;2064539;28;20529;-61
2022/01/02 04:06:54;;;;;;;7.63;4.25;;;;;;;1.91;94.42;96943.41;2064209;28;20230;-61
2022/01/02 04:07:56;;;;;;;9.82;4.60;;;;;;;2.14;94.26;96975.50;2064435;28;20214;-60
2022/01/02 04:08:57;;;;;;;6.25;4.00;;;;;;;2.27;94.23;96991.47;2064727;28;20198;-60
2022/01/02 04:10:05;;;;;;;11.18;4.80;;;;;;;2.28;93.93;96977.66;2061395;28;20238;-60
2022/01/02 04:11:06;;;;;;;7.15;4.15;;;;;;;2.09;94.40;96980.78;2055955;28;20213;-60
2022/01/02 04:12:08;;;;;;;7.85;4.60;;;;;;;2.26;93.32;96974.28;2056372;28;20226;-60
2022/01/02 04:13:09;;;;;;;9.55;5.15;;;;;;;2.29;92.64;96974.19;2064706;28;20265;-60
2022/01/02 04:14:11;;;;;;;12.80;5.22;;;;;;;2.06;92.57;96975.72;2064657;28;20225;-60
2022/01/02 04:15:14;;;;;;;8.77;4.85;;;;;;;1.85;93.32;96968.59;2064615;28;20626;-61
2022/01/02 04:16:16;;;;;;;11.65;4.63;;;;;;;1.87;94.01;96974.53;2064116;28;20202;-60
2022/01/02 04:17:17;;;;;;;8.05;4.88;;;;;;;1.84;93.92;96977.22;2063898;28;20222;-60
2022/01/02 04:18:19;;;;;;;8.40;4.45;;;;;;;1.84;94.30;96974.63;2064234;28;20214;-60
2022/01/02 04:19:20;;;;;;;8.77;4.45;;;;;;;1.69;94.29;96947.50;2064268;28;20194;-61
2022/01/02 04:20:22;;;;;;;11.55;4.85;;;;;;;1.92;94.14;96965.78;2064185;28;20249;-60
2022/01/02 04:21:23;;;;;;;7.70;4.85;;;;;;;1.31;94.59;96883.16;2063565;28;20661;-60
2022/01/02 04:22:25;;;;;;;6.53;4.45;;;;;;;1.94;94.86;96963.13;2063401;28;20772;-60
2022/01/02 04:23:26;;;;;;;10.70;5.35;;;;;;;1.94;94.86;96968.28;2063800;28;20684;-60
2022/01/02 04:24:28;;;;;;;5.38;4.07;;;;;;;1.94;94.64;96957.97;2063712;28;20219;-60
2022/01/02 04:25:29;;;;;;;7.22;4.05;;;;;;;1.90;94.75;96946.03;2064199;28;20240;-60
2022/01/02 04:26:31;;;;;;;9.77;5.05;;;;;;;1.97;94.96;96960.47;2063442;28;20205;-61
2022/01/02 04:27:33;;;;;;;7.93;4.47;;;;;;;1.95;95.24;96952.75;2063833;28;20209;-60
2022/01/02 04:28:34;;;;;;;6.75;4.43;;;;;;;2.00;95.18;96957.81;2064480;28;20194;-60
2022/01/02 04:29:36;;;;;;;7.32;4.57;;;;;;;2.10;95.10;96954.06;2064514;28;20194;-60
2022/01/02 04:30:37;;;;;;;6.97;4.00;;;;;;;2.19;94.93;96950.34;2064480;28;20198;-60
2022/01/02 04:31:39;;;;;;;8.00;4.00;;;;;;;2.25;95.05;96954.50;2064086;28;20230;-60
2022/01/02 04:32:41;;;;;;;4.82;3.53;;;;;;;2.26;94.73;96963.94;2064681;28;20205;-60
2022/01/02 04:33:43;;;;;;;6.88;3.63;;;;;;;2.30;94.75;96950.03;2064076;28;20543;-60
2022/01/02 04:34:44;;;;;;;6.43;3.67;;;;;;;2.23;94.77;96948.53;2063993;28;20194;-60
2022/01/02 04:35:46;;;;;;;5.38;3.20;;;;;;;2.18;95.60;96946.09;2063873;28;20203;-61
2022/01/02 04:36:47;;;;;;;6.35;3.85;;;;;;;2.17;95.61;96937.47;2064281;28;20202;-60
2022/01/02 04:37:49;;;;;;;7.00;3.30;;;;;;;2.26;95.50;96943.28;2064678;28;20202;-60
2022/01/02 04:38:50;;;;;;;7.15;3.90;;;;;;;2.30;95.69;96934.53;2064605;28;20669;-61
2022/01/02 04:39:52;;;;;;;7.10;3.35;;;;;;;2.31;95.67;96937.06;2061289;28;20653;-60
2022/01/02 04:40:53;;;;;;;5.78;2.90;;;;;;;2.36;95.64;96937.75;2064407;28;20206;-60
2022/01/02 04:41:55;;;;;;;5.68;3.30;;;;;;;2.29;95.91;96936.25;2064116;28;20677;-61
2022/01/02 04:42:56;;;;;;;4.05;2.95;;;;;;;2.41;95.78;96940.22;2064433;28;20209;-60
2022/01/02 04:43:58;;;;;;;8.32;3.78;;;;;;;2.40;95.72;96941.09;2064541;28;20194;-60
2022/01/02 04:44:59;;;;;;;7.55;3.80;;;;;;;2.40;95.22;96946.28;2064341;28;20217;-60
2022/01/02 04:46:01;;;;;;;9.23;3.80;;;;;;;2.15;95.14;96921.16;2064403;28;20198;-60
2022/01/02 04:47:03;;;;;;;6.05;3.97;;;;;;;1.79;95.09;96850.78;2063940;28;20306;-60
2022/01/02 04:48:05;;;;;;;6.85;3.92;;;;;;;2.36;95.18;96940.34;2064362;28;20225;-60
2022/01/02 04:49:07;;;;;;;9.43;4.85;;;;;;;2.36;94.52;96932.59;2062741;28;20198;-60
2022/01/02 04:50:08;;;;;;;8.70;3.95;;;;;;;2.34;94.35;96928.38;2064488;28;20217;-60
2022/01/02 04:51:10;;;;;;;6.50;4.22;;;;;;;2.44;94.39;96941.88;2064467;28;20199;-61
2022/01/02 04:52:11;;;;;;;7.32;3.97;;;;;;;2.40;93.65;96940.28;2063952;28;20234;-60
2022/01/02 04:53:13;;;;;;;12.10;4.70;;;;;;;2.31;93.45;96939.66;2062460;28;20207;-61
2022/01/02 04:54:15;;;;;;;6.88;4.28;;;;;;;2.27;93.74;96934.63;2063749;28;20217;-60
2022/01/02 04:55:17;;;;;;;8.93;4.63;;;;;;;2.23;94.29;96939.03;2064412;28;20204;-61
2022/01/02 04:56:18;;;;;;;7.32;4.72;;;;;;;2.32;93.97;96940.50;2063290;28;20198;-60
2022/01/02 04:57:19;;;;;;;6.75;5.22;;;;;;;1.94;94.19;96886.50;2063739;28;20226;-60
2022/01/02 04:58:21;;;;;;;7.70;4.47;;;;;;;2.25;94.47;96932.06;2064077;28;20224;-60
2022/01/02 04:59:22;;;;;;;6.88;4.28;;;;;;;2.27;94.59;96934.63;2064244;28;20194;-60
2022/01/02 05:00:24;;;;;;;6.28;4.30;;;;;;;1.96;94.76;96881.25;2062515;28;20204;-60
2022/01/02 05:01:25;;;;;;;6.90;4.40;;;;;;;2.22;94.91;96927.00;2063679;28;20198;-60
2022/01/02 05:02:28;;;;;;;7.47;4.10;;;;;;;2.34;94.74;96923.22;2062020;28;20370;-60
2022/01/02 05:03:29;;;;;;;7.97;4.75;;;;;;;2.37;94.73;96941.19;2064370;28;20202;-60
2022/01/02 05:04:31;;;;;;;6.35;4.25;;;;;;;2.47;94.46;96934.84;2064228;28;20209;-60
2022/01/02 05:05:32;;;;;;;8.45;3.95;;;;;;;2.44;94.59;96936.69;2064367;28;20198;-60
2022/01/02 05:06:34;;;;;;;5.65;3.50;;;;;;;2.23;94.55;96899.41;2063846;28;20551;-60
2022/01/02 05:07:35;;;;;;;7.28;4.13;;;;;;;2.37;94.62;96926.53;2064229;28;20290;-60